Time;durP1;ratioP1;P1;durP2;ratioP2;P2;SDS_P1;SDS_P2;PMS_P1;PMS_P2;Temp;Humidity;BMP_temperature;BMP_pressure;BME280_temperature;BME280_humidity;BME280_pressure;Samples;Min_cycle;Max_cycle;Signal;HPM_P1;HPM_P2
2022/03/25 00:01:03;;;;;;;;;;;23.40;32.30;;;;;;1553241;75;614;-71
2022/03/25 00:03:05;;;;;;;;;;;23.40;32.40;;;;;;1556207;75;695;-70
2022/03/25 00:05:07;;;;;;;;;;;23.40;32.40;;;;;;1555828;75;743;-70
2022/03/25 00:07:09;;;;;;;;;;;23.40;32.40;;;;;;1550428;75;1141;-71
2022/03/25 00:09:11;;;;;;;;;;;23.40;32.50;;;;;;1556045;74;826;-72
2022/03/25 00:11:13;;;;;;;;;;;23.40;32.50;;;;;;1559653;75;702;-71
2022/03/25 00:13:15;;;;;;;;;;;23.40;32.50;;;;;;1576678;74;1952;-72
2022/03/25 00:15:17;;;;;;;;;;;23.40;32.60;;;;;;1577165;74;710;-72
2022/03/25 00:17:19;;;;;;;;;;;23.40;32.60;;;;;;1582959;73;1161;-72
2022/03/25 00:19:20;;;;;;;;;;;23.40;32.60;;;;;;1579191;74;740;-73
2022/03/25 00:21:22;;;;;;;;;;;23.30;32.60;;;;;;1577035;73;746;-72
2022/03/25 00:23:25;;;;;;;;;;;23.30;32.70;;;;;;1574544;74;720;-72
2022/03/25 00:25:26;;;;;;;;;;;23.40;32.80;;;;;;1579851;74;732;-72
2022/03/25 00:27:28;;;;;;;;;;;23.30;32.70;;;;;;1574278;74;1095;-71
2022/03/25 00:29:30;;;;;;;;;;;23.30;32.80;;;;;;1590730;74;735;-71
2022/03/25 00:31:32;;;;;;;;;;;23.30;32.80;;;;;;1571839;74;723;-71
2022/03/25 00:33:35;;;;;;;;;;;23.30;32.80;;;;;;1587015;74;1948;-70
2022/03/25 00:35:37;;;;;;;;;;;23.30;32.90;;;;;;1576358;74;711;-72
2022/03/25 00:37:38;;;;;;;;;;;23.30;33.00;;;;;;1581218;74;1182;-71
2022/03/25 00:39:40;;;;;;;;;;;23.20;32.90;;;;;;1584182;74;728;-70
2022/03/25 00:41:44;;;;;;;;;;;23.30;33.00;;;;;;1593618;74;668;-70
2022/03/25 00:43:46;;;;;;;;;;;23.20;33.00;;;;;;1592331;74;779;-71
2022/03/25 00:45:48;;;;;;;;;;;23.30;33.10;;;;;;1579327;74;880;-71
2022/03/25 00:47:50;;;;;;;;;;;23.20;33.00;;;;;;1580713;74;1153;-72
2022/03/25 00:49:52;;;;;;;;;;;23.30;33.10;;;;;;1583818;74;698;-71
2022/03/25 00:51:54;;;;;;;;;;;23.30;33.10;;;;;;1591282;74;1928;-71
2022/03/25 00:53:55;;;;;;;;;;;23.20;33.10;;;;;;1570467;74;715;-71
2022/03/25 00:55:58;;;;;;;;;;;23.30;33.20;;;;;;1586695;74;597;-70
2022/03/25 00:58:00;;;;;;;;;;;23.30;33.30;;;;;;1579640;74;1179;-71
2022/03/25 01:00:01;;;;;;;;;;;23.30;33.30;;;;;;1583044;74;824;-70
2022/03/25 01:02:03;;;;;;;;;;;23.30;33.30;;;;;;1581305;74;755;-72
2022/03/25 01:04:05;;;;;;;;;;;23.20;33.30;;;;;;1573812;74;696;-73
2022/03/25 01:06:07;;;;;;;;;;;23.30;33.40;;;;;;1574279;74;727;-71
2022/03/25 01:08:11;;;;;;;;;;;23.30;33.40;;;;;;1586422;73;1125;-73
2022/03/25 01:10:13;;;;;;;;;;;23.30;33.40;;;;;;1592354;74;716;-72
2022/03/25 01:12:15;;;;;;;;;;;23.30;33.40;;;;;;1586524;74;1935;-72
2022/03/25 01:14:17;;;;;;;;;;;23.30;33.40;;;;;;1570724;75;1017;-72
2022/03/25 01:16:18;;;;;;;;;;;23.30;33.40;;;;;;1566272;75;697;-72
2022/03/25 01:18:21;;;;;;;;;;;23.30;33.40;;;;;;1570867;75;1164;-72
2022/03/25 01:20:23;;;;;;;;;;;23.30;33.40;;;;;;1564764;75;562;-72
2022/03/25 01:22:25;;;;;;;;;;;23.30;33.40;;;;;;1569402;75;721;-72
2022/03/25 01:24:27;;;;;;;;;;;23.30;33.50;;;;;;1548260;75;739;-73
2022/03/25 01:26:29;;;;;;;;;;;23.30;33.50;;;;;;1574445;75;725;-72
2022/03/25 01:28:34;;;;;;;;;;;23.30;33.50;;;;;;1560042;75;1115;-72
2022/03/25 01:30:35;;;;;;;;;;;23.30;33.60;;;;;;1575627;75;1614;-73
2022/03/25 01:32:37;;;;;;;;;;;23.30;33.60;;;;;;1569846;75;1907;-72
2022/03/25 01:34:39;;;;;;;;;;;23.20;33.50;;;;;;1553695;75;754;-72
2022/03/25 01:36:41;;;;;;;;;;;23.30;33.60;;;;;;1564496;75;719;-70
2022/03/25 01:38:44;;;;;;;;;;;23.30;33.60;;;;;;1569833;75;1176;-72
2022/03/25 01:40:45;;;;;;;;;;;23.30;33.60;;;;;;1555083;75;749;-71
2022/03/25 01:42:47;;;;;;;;;;;23.30;33.60;;;;;;1575497;75;726;-69
2022/03/25 01:44:49;;;;;;;;;;;23.20;33.60;;;;;;1557558;75;718;-72
2022/03/25 01:46:52;;;;;;;;;;;23.30;33.60;;;;;;1549318;75;1136;-71
2022/03/25 01:48:54;;;;;;;;;;;23.30;33.70;;;;;;1544309;75;721;-71
2022/03/25 01:50:56;;;;;;;;;;;23.30;33.70;;;;;;1559035;75;741;-71
2022/03/25 01:52:58;;;;;;;;;;;23.30;33.70;;;;;;1571661;74;1932;-72
2022/03/25 01:55:01;;;;;;;;;;;23.30;33.70;;;;;;1576739;75;742;-70
2022/03/25 01:57:05;;;;;;;;;;;23.30;33.80;;;;;;1540731;75;1584;-70
2022/03/25 01:59:08;;;;;;;;;;;23.20;33.70;;;;;;1570426;75;703;-70
2022/03/25 02:01:10;;;;;;;;;;;23.20;33.70;;;;;;1566552;75;700;-71
2022/03/25 02:03:11;;;;;;;;;;;23.20;33.80;;;;;;1573060;75;700;-71
2022/03/25 02:05:13;;;;;;;;;;;23.20;33.80;;;;;;1548739;75;827;-71
2022/03/25 02:07:15;;;;;;;;;;;23.30;33.80;;;;;;1540667;75;1145;-71
2022/03/25 02:09:17;;;;;;;;;;;23.30;33.90;;;;;;1568380;75;700;-71
2022/03/25 02:11:19;;;;;;;;;;;23.30;33.80;;;;;;1569601;75;720;-71
2022/03/25 02:13:21;;;;;;;;;;;23.20;33.80;;;;;;1565310;75;1953;-72
2022/03/25 02:15:39;;;;;;;;;;;23.20;33.90;;;;;;1568338;75;639;-71
2022/03/25 02:17:41;;;;;;;;;;;23.20;33.90;;;;;;1564900;70;2054;-68
2022/03/25 02:19:43;;;;;;;;;;;23.20;33.90;;;;;;1566242;74;689;-66
2022/03/25 02:21:47;;;;;;;;;;;23.20;33.90;;;;;;1589719;74;713;-66
2022/03/25 02:23:49;;;;;;;;;;;23.20;33.90;;;;;;1580537;74;1497;-66
2022/03/25 02:25:51;;;;;;;;;;;23.20;34.00;;;;;;1591979;73;705;-67
2022/03/25 02:27:53;;;;;;;;;;;23.20;33.90;;;;;;1586762;74;1234;-67
2022/03/25 02:29:55;;;;;;;;;;;23.30;34.00;;;;;;1563019;74;786;-67
2022/03/25 02:31:57;;;;;;;;;;;23.30;34.00;;;;;;1574095;75;682;-67
2022/03/25 02:34:00;;;;;;;;;;;23.30;34.00;;;;;;1605276;73;1943;-66
2022/03/25 02:36:02;;;;;;;;;;;23.30;34.00;;;;;;1608783;73;1019;-68
2022/03/25 02:38:05;;;;;;;;;;;23.30;34.10;;;;;;1607608;73;1159;-69
2022/03/25 02:40:07;;;;;;;;;;;23.30;34.00;;;;;;1603522;73;762;-67
2022/03/25 02:42:10;;;;;;;;;;;23.30;34.00;;;;;;1609793;73;697;-67
2022/03/25 02:44:11;;;;;;;;;;;23.30;34.00;;;;;;1612268;73;718;-67
2022/03/25 02:46:13;;;;;;;;;;;23.30;34.10;;;;;;1617013;73;771;-66
2022/03/25 02:48:15;;;;;;;;;;;23.30;34.10;;;;;;1605209;73;1132;-67
2022/03/25 02:50:17;;;;;;;;;;;23.30;34.10;;;;;;1614786;72;719;-68
2022/03/25 02:52:19;;;;;;;;;;;23.30;34.10;;;;;;1606935;73;703;-67
2022/03/25 02:54:21;;;;;;;;;;;23.20;34.00;;;;;;1602438;72;1945;-67
2022/03/25 02:56:24;;;;;;;;;;;23.20;34.00;;;;;;1602905;73;694;-67
2022/03/25 02:58:26;;;;;;;;;;;23.30;34.10;;;;;;1604811;73;1104;-67
2022/03/25 03:00:28;;;;;;;;;;;23.30;34.10;;;;;;1594512;72;705;-67
2022/03/25 03:02:30;;;;;;;;;;;23.30;34.10;;;;;;1611693;72;730;-68
2022/03/25 03:04:32;;;;;;;;;;;23.30;34.20;;;;;;1606317;72;723;-66
2022/03/25 03:06:34;;;;;;;;;;;23.30;34.20;;;;;;1613807;72;723;-66
2022/03/25 03:08:36;;;;;;;;;;;23.30;34.30;;;;;;1605258;72;1114;-66
2022/03/25 03:10:38;;;;;;;;;;;23.30;34.30;;;;;;1612089;72;742;-68
2022/03/25 03:12:41;;;;;;;;;;;23.20;34.20;;;;;;1604994;72;1935;-66
2022/03/25 03:14:43;;;;;;;;;;;23.30;34.30;;;;;;1625725;72;714;-67
2022/03/25 03:16:45;;;;;;;;;;;23.30;34.30;;;;;;1604267;73;729;-66
2022/03/25 03:18:47;;;;;;;;;;;23.30;34.30;;;;;;1609838;72;1131;-68
2022/03/25 03:20:49;;;;;;;;;;;23.30;34.40;;;;;;1615566;72;731;-67
2022/03/25 03:22:51;;;;;;;;;;;23.30;34.40;;;;;;1620142;72;710;-68
2022/03/25 03:24:53;;;;;;;;;;;23.30;34.30;;;;;;1615497;73;728;-68
2022/03/25 03:26:57;;;;;;;;;;;23.30;34.30;;;;;;1609260;73;770;-68
2022/03/25 03:28:59;;;;;;;;;;;23.40;34.30;;;;;;1609368;73;1103;-68
2022/03/25 03:31:01;;;;;;;;;;;23.50;34.30;;;;;;1600512;73;710;-66
2022/03/25 03:33:04;;;;;;;;;;;23.60;34.20;;;;;;1601844;73;1925;-66
2022/03/25 03:35:06;;;;;;;;;;;23.60;34.20;;;;;;1607839;73;689;-66
2022/03/25 03:37:08;;;;;;;;;;;23.60;34.40;;;;;;1607041;72;735;-67
2022/03/25 03:39:11;;;;;;;;;;;23.50;34.70;;;;;;1612149;72;723;-67
2022/03/25 03:41:13;;;;;;;;;;;23.40;34.80;;;;;;1604012;72;711;-66
2022/03/25 03:43:15;;;;;;;;;;;23.30;35.10;;;;;;1603704;72;685;-67
2022/03/25 03:45:17;;;;;;;;;;;23.30;35.20;;;;;;1599850;72;708;-67
2022/03/25 03:47:19;;;;;;;;;;;23.30;35.30;;;;;;1604292;72;1170;-68
2022/03/25 03:49:21;;;;;;;;;;;23.30;35.50;;;;;;1613363;72;720;-67
2022/03/25 03:51:23;;;;;;;;;;;23.20;35.60;;;;;;1597127;73;705;-67
2022/03/25 03:53:25;;;;;;;;;;;23.20;35.70;;;;;;1615442;73;1992;-69
2022/03/25 03:55:27;;;;;;;;;;;23.20;35.80;;;;;;1613599;73;809;-66
2022/03/25 03:57:29;;;;;;;;;;;23.20;36.00;;;;;;1603594;73;1118;-66
2022/03/25 03:59:31;;;;;;;;;;;23.20;36.20;;;;;;1614665;72;713;-66
2022/03/25 04:01:33;;;;;;;;;;;23.30;36.40;;;;;;1596537;72;732;-66
2022/03/25 04:03:35;;;;;;;;;;;23.20;36.30;;;;;;1603287;73;683;-66
2022/03/25 04:05:36;;;;;;;;;;;23.30;36.40;;;;;;1601885;73;627;-66
2022/03/25 04:07:45;;;;;;;;;;;23.20;36.40;;;;;;1605159;72;1120;-67
2022/03/25 04:09:46;;;;;;;;;;;23.20;36.40;;;;;;1591606;72;749;-66
2022/03/25 04:11:49;;;;;;;;;;;23.30;36.50;;;;;;1615501;73;688;-68
2022/03/25 04:13:51;;;;;;;;;;;23.30;36.50;;;;;;1615444;73;1912;-67
2022/03/25 04:15:52;;;;;;;;;;;23.30;36.40;;;;;;1605448;73;642;-66
2022/03/25 04:17:54;;;;;;;;;;;23.20;36.30;;;;;;1627283;72;1136;-68
2022/03/25 04:19:56;;;;;;;;;;;23.30;36.40;;;;;;1602662;73;741;-67
2022/03/25 04:21:58;;;;;;;;;;;23.30;36.50;;;;;;1604115;72;741;-67
2022/03/25 04:24:00;;;;;;;;;;;23.30;36.60;;;;;;1607809;73;734;-70
2022/03/25 04:26:02;;;;;;;;;;;23.30;36.50;;;;;;1600905;72;890;-67
2022/03/25 04:28:04;;;;;;;;;;;23.30;36.50;;;;;;1615182;72;1146;-67
2022/03/25 04:30:06;;;;;;;;;;;23.40;36.60;;;;;;1607255;73;774;-66
2022/03/25 04:32:08;;;;;;;;;;;23.40;36.60;;;;;;1594995;73;719;-67
2022/03/25 04:34:10;;;;;;;;;;;23.40;36.50;;;;;;1600086;72;1917;-67
2022/03/25 04:36:13;;;;;;;;;;;23.40;36.60;;;;;;1607514;72;692;-66
2022/03/25 04:38:15;;;;;;;;;;;23.40;36.50;;;;;;1609637;73;1047;-66
2022/03/25 04:40:17;;;;;;;;;;;23.40;36.50;;;;;;1603804;72;811;-66
2022/03/25 04:42:19;;;;;;;;;;;23.40;36.50;;;;;;1581023;73;746;-67
2022/03/25 04:44:21;;;;;;;;;;;23.40;36.50;;;;;;1552845;75;698;-67
2022/03/25 04:46:23;;;;;;;;;;;23.40;36.40;;;;;;1552853;76;689;-67
2022/03/25 04:48:25;;;;;;;;;;;23.40;36.40;;;;;;1555072;75;1169;-68
2022/03/25 04:50:27;;;;;;;;;;;23.40;36.30;;;;;;1547604;75;739;-69
2022/03/25 04:52:29;;;;;;;;;;;23.50;36.40;;;;;;1552803;76;826;-67
2022/03/25 04:54:31;;;;;;;;;;;23.50;36.40;;;;;;1616431;73;1939;-69
2022/03/25 04:56:35;;;;;;;;;;;23.40;36.30;;;;;;1601660;73;719;-66
2022/03/25 04:58:36;;;;;;;;;;;23.50;36.30;;;;;;1595592;72;1154;-67
2022/03/25 05:00:38;;;;;;;;;;;23.50;36.30;;;;;;1603095;73;731;-67
2022/03/25 05:02:40;;;;;;;;;;;23.50;36.40;;;;;;1602344;73;767;-66
2022/03/25 05:04:42;;;;;;;;;;;23.40;36.20;;;;;;1590122;72;748;-67
2022/03/25 05:06:44;;;;;;;;;;;23.40;36.20;;;;;;1603603;72;735;-68
2022/03/25 05:08:46;;;;;;;;;;;23.50;36.30;;;;;;1605592;72;1107;-66
2022/03/25 05:10:48;;;;;;;;;;;23.50;36.30;;;;;;1612348;72;724;-68
2022/03/25 05:12:50;;;;;;;;;;;23.50;36.50;;;;;;1616064;72;750;-68
2022/03/25 05:14:52;;;;;;;;;;;23.50;36.50;;;;;;1615361;72;1939;-66
2022/03/25 05:16:54;;;;;;;;;;;23.60;36.40;;;;;;1609076;72;812;-66
2022/03/25 05:18:56;;;;;;;;;;;23.60;36.40;;;;;;1612733;72;1270;-67
2022/03/25 05:20:59;;;;;;;;;;;23.60;36.40;;;;;;1612334;72;697;-67
2022/03/25 05:23:01;;;;;;;;;;;23.60;36.40;;;;;;1608097;72;1941;-68
2022/03/25 05:25:06;;;;;;;;;;;23.60;36.60;;;;;;1606955;72;743;-67
2022/03/25 05:27:06;;;;;;;;;;;23.50;36.50;;;;;;1613004;72;1653;-68
2022/03/25 05:29:09;;;;;;;;;;;23.50;36.50;;;;;;1603998;72;1168;-68
2022/03/25 05:31:11;;;;;;;;;;;23.60;36.50;;;;;;1602791;72;803;-67
2022/03/25 05:33:13;;;;;;;;;;;23.50;36.50;;;;;;1615457;72;765;-67
2022/03/25 05:35:15;;;;;;;;;;;23.60;36.60;;;;;;1608701;72;2055;-70
2022/03/25 05:37:17;;;;;;;;;;;23.50;36.50;;;;;;1602307;72;1171;-68
2022/03/25 05:39:20;;;;;;;;;;;23.60;36.80;;;;;;1607129;72;744;-67
2022/03/25 05:41:21;;;;;;;;;;;23.60;36.70;;;;;;1605153;72;723;-67
2022/03/25 05:43:23;;;;;;;;;;;23.60;36.70;;;;;;1601884;72;818;-66
2022/03/25 05:45:26;;;;;;;;;;;23.60;36.80;;;;;;1612385;72;607;-66
2022/03/25 05:47:28;;;;;;;;;;;23.60;36.90;;;;;;1614896;72;1118;-68
2022/03/25 05:49:30;;;;;;;;;;;23.60;36.90;;;;;;1604998;72;749;-68
2022/03/25 05:51:32;;;;;;;;;;;23.60;37.00;;;;;;1602361;72;794;-68
2022/03/25 05:53:33;;;;;;;;;;;23.60;36.50;;;;;;1596224;73;1930;-68
2022/03/25 05:55:35;;;;;;;;;;;23.60;36.30;;;;;;1614418;73;723;-68
2022/03/25 05:57:37;;;;;;;;;;;23.60;36.20;;;;;;1607136;72;1154;-68
2022/03/25 05:59:39;;;;;;;;;;;23.60;36.10;;;;;;1600678;72;709;-68
2022/03/25 06:01:42;;;;;;;;;;;23.60;36.00;;;;;;1601084;73;910;-69
2022/03/25 06:03:44;;;;;;;;;;;23.60;35.90;;;;;;1602722;73;719;-71
2022/03/25 06:05:46;;;;;;;;;;;23.60;35.70;;;;;;1622381;73;691;-69
2022/03/25 06:07:48;;;;;;;;;;;23.60;35.70;;;;;;1609028;72;1146;-69
2022/03/25 06:09:49;;;;;;;;;;;23.60;35.60;;;;;;1605247;72;698;-68
2022/03/25 06:11:51;;;;;;;;;;;23.50;35.60;;;;;;1613590;73;722;-68
2022/03/25 06:13:53;;;;;;;;;;;23.60;35.50;;;;;;1604020;72;1921;-67
2022/03/25 06:15:55;;;;;;;;;;;23.50;35.40;;;;;;1615058;73;757;-68
2022/03/25 06:17:57;;;;;;;;;;;23.50;35.30;;;;;;1603242;72;1143;-68
2022/03/25 06:19:59;;;;;;;;;;;23.60;35.20;;;;;;1610864;73;728;-68
2022/03/25 06:22:01;;;;;;;;;;;23.60;35.20;;;;;;1600335;73;698;-69
2022/03/25 06:24:03;;;;;;;;;;;23.50;35.40;;;;;;1616984;72;711;-69
2022/03/25 06:26:05;;;;;;;;;;;23.50;35.50;;;;;;1612606;72;721;-66
2022/03/25 06:28:07;;;;;;;;;;;23.60;36.00;;;;;;1612858;72;1151;-68
2022/03/25 06:30:09;;;;;;;;;;;23.50;36.10;;;;;;1608556;73;721;-69
2022/03/25 06:32:11;;;;;;;;;;;23.60;36.00;;;;;;1615535;72;761;-67
2022/03/25 06:34:20;;;;;;;;;;;23.60;35.90;;;;;;1601952;72;1939;-69
2022/03/25 06:36:16;;;;;;;;;;;23.60;35.80;;;;;;1598365;72;1607;-67
2022/03/25 06:38:18;;;;;;;;;;;23.60;35.80;;;;;;1610617;73;1156;-68
2022/03/25 06:40:20;;;;;;;;;;;23.50;35.80;;;;;;1604148;72;793;-67
2022/03/25 06:42:22;;;;;;;;;;;23.50;35.70;;;;;;1610662;72;740;-67
2022/03/25 06:44:24;;;;;;;;;;;23.60;35.70;;;;;;1607137;72;705;-67
2022/03/25 06:46:26;;;;;;;;;;;23.60;35.70;;;;;;1610984;72;727;-68
2022/03/25 06:48:28;;;;;;;;;;;23.60;35.70;;;;;;1613533;72;1181;-68
2022/03/25 06:50:30;;;;;;;;;;;23.50;35.50;;;;;;1613747;72;679;-68
2022/03/25 06:52:32;;;;;;;;;;;23.50;35.30;;;;;;1588870;72;733;-67
2022/03/25 06:54:37;;;;;;;;;;;23.60;35.20;;;;;;1613228;73;1917;-67
2022/03/25 06:56:40;;;;;;;;;;;23.60;35.20;;;;;;1592721;72;706;-68
2022/03/25 06:58:42;;;;;;;;;;;23.60;35.20;;;;;;1623640;72;1066;-68
2022/03/25 07:00:44;;;;;;;;;;;23.50;35.20;;;;;;1601964;72;771;-68
2022/03/25 07:02:46;;;;;;;;;;;23.50;35.20;;;;;;1615852;72;704;-67
2022/03/25 07:04:48;;;;;;;;;;;23.50;35.20;;;;;;1611959;73;730;-67
2022/03/25 07:06:50;;;;;;;;;;;23.60;35.20;;;;;;1593881;73;730;-66
2022/03/25 07:08:53;;;;;;;;;;;23.60;35.10;;;;;;1613351;73;1138;-67
2022/03/25 07:10:55;;;;;;;;;;;23.50;35.20;;;;;;1614331;72;732;-66
2022/03/25 07:12:57;;;;;;;;;;;23.60;35.10;;;;;;1606838;72;741;-69
2022/03/25 07:14:59;;;;;;;;;;;23.60;35.10;;;;;;1603413;72;1917;-67
2022/03/25 07:17:01;;;;;;;;;;;23.60;35.10;;;;;;1601025;73;737;-68
2022/03/25 07:19:03;;;;;;;;;;;23.50;35.10;;;;;;1594740;73;1120;-69
2022/03/25 07:21:05;;;;;;;;;;;23.50;35.20;;;;;;1609279;73;712;-70
2022/03/25 07:23:07;;;;;;;;;;;23.70;35.00;;;;;;1614461;73;743;-70
2022/03/25 07:25:09;;;;;;;;;;;24.00;34.60;;;;;;1618213;72;783;-67
2022/03/25 07:27:11;;;;;;;;;;;24.10;34.30;;;;;;1614827;73;1161;-68
2022/03/25 07:29:13;;;;;;;;;;;24.10;34.00;;;;;;1615574;73;709;-68
2022/03/25 07:31:15;;;;;;;;;;;24.20;33.60;;;;;;1599384;72;691;-71
2022/03/25 07:33:17;;;;;;;;;;;24.20;33.40;;;;;;1608341;72;703;-71
2022/03/25 07:35:18;;;;;;;;;;;24.30;33.20;;;;;;1600923;72;1928;-72
2022/03/25 07:37:21;;;;;;;;;;;24.20;32.90;;;;;;1609791;72;1167;-71
2022/03/25 07:39:23;;;;;;;;;;;24.30;32.70;;;;;;1605656;72;714;-71
2022/03/25 07:41:24;;;;;;;;;;;24.30;32.80;;;;;;1600328;73;813;-71
2022/03/25 07:43:26;;;;;;;;;;;24.40;32.60;;;;;;1603115;73;805;-69
2022/03/25 07:45:28;;;;;;;;;;;24.40;32.40;;;;;;1604421;73;792;-69
2022/03/25 07:47:32;;;;;;;;;;;24.40;32.20;;;;;;1611406;72;1194;-70
2022/03/25 07:49:38;;;;;;;;;;;24.50;32.20;;;;;;1619910;73;800;-69
2022/03/25 07:51:40;;;;;;;;;;;24.40;32.10;;;;;;1615761;73;664;-69
2022/03/25 07:53:42;;;;;;;;;;;24.40;31.90;;;;;;1609118;73;750;-69
2022/03/25 07:55:46;;;;;;;;;;;24.50;31.80;;;;;;1609360;73;1931;-71
2022/03/25 07:57:47;;;;;;;;;;;24.50;31.80;;;;;;1599789;72;1654;-70
2022/03/25 07:59:49;;;;;;;;;;;24.50;31.80;;;;;;1603515;72;749;-72
2022/03/25 08:01:52;;;;;;;;;;;24.50;31.60;;;;;;1605533;73;765;-70
2022/03/25 08:03:55;;;;;;;;;;;24.60;31.50;;;;;;1593858;72;789;-69
2022/03/25 08:05:57;;;;;;;;;;;24.60;31.40;;;;;;1600329;72;772;-69
2022/03/25 08:08:02;;;;;;;;;;;24.60;31.40;;;;;;1601369;72;1138;-71
2022/03/25 08:10:03;;;;;;;;;;;24.70;31.40;;;;;;1596771;72;1135;-70
2022/03/25 08:12:05;;;;;;;;;;;24.70;31.30;;;;;;1608749;72;713;-69
2022/03/25 08:14:07;;;;;;;;;;;24.70;31.10;;;;;;1610648;72;697;-70
2022/03/25 08:16:09;;;;;;;;;;;24.70;31.00;;;;;;1613811;72;1943;-71
2022/03/25 08:18:10;;;;;;;;;;;24.70;31.00;;;;;;1601830;71;2069;-75
2022/03/25 08:20:13;;;;;;;;;;;24.80;30.90;;;;;;1525795;75;685;-73
2022/03/25 08:22:15;;;;;;;;;;;24.80;30.70;;;;;;1527478;75;733;-74
2022/03/25 08:28:57;;;;;;;;;;;24.70;30.60;;;;;;1540737;75;1251;-73
2022/03/25 08:30:59;;;;;;;;;;;24.70;30.60;;;;;;1533098;75;772;-74
2022/03/25 08:33:01;;;;;;;;;;;24.70;30.40;;;;;;1532023;75;748;-76
2022/03/25 08:35:03;;;;;;;;;;;24.70;30.40;;;;;;1533269;75;1953;-72
2022/03/25 08:37:05;;;;;;;;;;;24.70;30.30;;;;;;1529594;75;725;-72
2022/03/25 08:39:07;;;;;;;;;;;24.80;30.30;;;;;;1537467;76;1179;-74
2022/03/25 08:41:09;;;;;;;;;;;24.70;30.20;;;;;;1532572;77;708;-74
2022/03/25 08:43:11;;;;;;;;;;;24.70;30.20;;;;;;1530887;76;731;-73
2022/03/25 08:45:15;;;;;;;;;;;24.70;30.10;;;;;;1523868;77;704;-73
2022/03/25 08:47:16;;;;;;;;;;;24.70;30.00;;;;;;1534707;75;733;-74
2022/03/25 08:49:18;;;;;;;;;;;24.70;29.90;;;;;;1536244;75;1123;-73
2022/03/25 08:51:20;;;;;;;;;;;24.70;29.80;;;;;;1530334;76;705;-73
2022/03/25 08:53:22;;;;;;;;;;;24.70;29.80;;;;;;1527580;76;706;-74
2022/03/25 08:55:24;;;;;;;;;;;24.70;29.80;;;;;;1533685;75;1946;-74
2022/03/25 08:57:26;;;;;;;;;;;24.70;29.70;;;;;;1530323;75;734;-74
2022/03/25 08:59:28;;;;;;;;;;;24.70;29.70;;;;;;1520150;75;1141;-73
2022/03/25 09:01:30;;;;;;;;;;;24.70;29.70;;;;;;1524379;77;714;-69
2022/03/25 09:03:32;;;;;;;;;;;24.70;29.60;;;;;;1518693;76;716;-70
2022/03/25 09:05:34;;;;;;;;;;;24.70;29.50;;;;;;1518576;75;706;-70
2022/03/25 09:07:37;;;;;;;;;;;24.70;29.20;;;;;;1522864;76;610;-73
2022/03/25 09:09:38;;;;;;;;;;;24.60;28.40;;;;;;1530951;77;1103;-67
2022/03/25 09:11:40;;;;;;;;;;;24.60;27.50;;;;;;1513290;76;706;-67
2022/03/25 09:13:42;;;;;;;;;;;24.60;27.30;;;;;;1521859;76;758;-68
2022/03/25 09:15:44;;;;;;;;;;;24.50;27.30;;;;;;1514100;75;1928;-70
2022/03/25 09:17:46;;;;;;;;;;;24.40;27.30;;;;;;1549612;75;1155;-67
2022/03/25 09:19:48;;;;;;;;;;;24.40;27.30;;;;;;1517621;76;740;-67
2022/03/25 09:21:50;;;;;;;;;;;24.50;27.30;;;;;;1535627;77;727;-66
2022/03/25 09:23:52;;;;;;;;;;;24.30;27.10;;;;;;1527947;75;698;-63
2022/03/25 09:25:54;;;;;;;;;;;24.40;27.40;;;;;;1529688;75;647;-62
2022/03/25 09:27:56;;;;;;;;;;;24.30;26.80;;;;;;1524958;75;1166;-62
2022/03/25 09:29:58;;;;;;;;;;;24.40;26.30;;;;;;1522017;75;694;-62
2022/03/25 09:32:00;;;;;;;;;;;24.30;26.00;;;;;;1527533;75;702;-64
2022/03/25 09:36:22;;;;;;;;;;;24.30;26.20;;;;;;1524481;75;1905;-63
2022/03/25 09:38:24;;;;;;;;;;;24.30;26.20;;;;;;1523320;75;1203;-63
2022/03/25 09:40:26;;;;;;;;;;;24.30;26.40;;;;;;1525470;75;722;-64
2022/03/25 09:42:28;;;;;;;;;;;24.30;26.30;;;;;;1523165;75;738;-62
2022/03/25 09:44:30;;;;;;;;;;;24.30;26.30;;;;;;1527596;75;748;-65
2022/03/25 09:46:32;;;;;;;;;;;24.30;25.80;;;;;;1527780;75;749;-62
2022/03/25 09:48:34;;;;;;;;;;;24.30;25.80;;;;;;1526810;75;1182;-62
2022/03/25 09:50:39;;;;;;;;;;;24.20;24.30;;;;;;1526852;75;726;-62
2022/03/25 09:52:39;;;;;;;;;;;24.20;25.00;;;;;;1527447;75;1639;-64
2022/03/25 09:54:41;;;;;;;;;;;24.10;25.10;;;;;;1531360;75;640;-64
2022/03/25 09:56:43;;;;;;;;;;;24.10;25.20;;;;;;1527397;75;1948;-63
2022/03/25 09:58:45;;;;;;;;;;;24.10;25.50;;;;;;1518485;75;1171;-63
2022/03/25 10:00:50;;;;;;;;;;;24.10;24.20;;;;;;1525793;75;667;-63
2022/03/25 10:02:52;;;;;;;;;;;24.00;21.30;;;;;;1530330;75;662;-63
2022/03/25 10:04:55;;;;;;;;;;;23.90;23.80;;;;;;1517277;75;710;-63
2022/03/25 10:06:57;;;;;;;;;;;23.90;24.20;;;;;;1520812;75;619;-63
2022/03/25 10:09:01;;;;;;;;;;;23.90;22.10;;;;;;1519716;75;1167;-63
2022/03/25 10:11:21;;;;;;;;;;;23.90;23.00;;;;;;1524743;75;1606;-63
2022/03/25 10:13:23;;;;;;;;;;;23.80;23.30;;;;;;1523055;75;676;-63
2022/03/25 10:15:26;;;;;;;;;;;23.80;22.90;;;;;;1531038;75;1931;-63
2022/03/25 10:17:28;;;;;;;;;;;23.70;20.20;;;;;;1544228;75;651;-64
2022/03/25 10:19:31;;;;;;;;;;;23.60;22.90;;;;;;1531443;76;1154;-63
2022/03/25 10:21:34;;;;;;;;;;;23.70;23.60;;;;;;1526049;75;684;-63
2022/03/25 10:23:36;;;;;;;;;;;23.70;23.70;;;;;;1527108;75;1158;-63
2022/03/25 10:25:39;;;;;;;;;;;23.60;21.80;;;;;;1530902;75;737;-63
2022/03/25 10:27:41;;;;;;;;;;;23.50;21.30;;;;;;1522354;75;717;-63
2022/03/25 10:29:44;;;;;;;;;;;23.40;22.30;;;;;;1525254;75;1328;-63
2022/03/25 10:32:05;;;;;;;;;;;23.40;23.20;;;;;;1526292;75;607;-63
2022/03/25 10:34:07;;;;;;;;;;;23.50;23.00;;;;;;1515476;75;620;-63
2022/03/25 10:36:09;;;;;;;;;;;23.50;23.40;;;;;;1494826;77;1925;-63
2022/03/25 10:38:12;;;;;;;;;;;23.50;23.70;;;;;;1525572;75;1242;-63
2022/03/25 10:40:14;;;;;;;;;;;23.50;23.90;;;;;;1538968;77;725;-63
2022/03/25 10:42:16;;;;;;;;;;;23.50;22.90;;;;;;1525875;75;732;-64
2022/03/25 10:44:17;;;;;;;;;;;23.40;23.40;;;;;;1530873;76;757;-64
2022/03/25 10:46:33;;;;;;;;;;;23.50;23.60;;;;;;1517750;75;720;-63
2022/03/25 10:48:35;;;;;;;;;;;23.50;22.60;;;;;;1525711;75;1175;-63
2022/03/25 10:50:39;;;;;;;;;;;23.40;21.50;;;;;;1536233;75;736;-63
2022/03/25 10:52:41;;;;;;;;;;;23.30;22.90;;;;;;1523217;76;1575;-62
2022/03/25 10:54:43;;;;;;;;;;;23.30;23.30;;;;;;1526724;75;754;-63
2022/03/25 10:56:49;;;;;;;;;;;23.30;23.10;;;;;;1526277;77;1935;-63
2022/03/25 10:58:52;;;;;;;;;;;23.40;22.80;;;;;;1519009;77;1137;-66
2022/03/25 11:00:54;;;;;;;;;;;23.30;23.30;;;;;;1534014;75;1502;-63
2022/03/25 11:02:56;;;;;;;;;;;23.30;21.40;;;;;;1521992;76;618;-62
2022/03/25 11:04:58;;;;;;;;;;;23.20;22.10;;;;;;1526143;76;1030;-62
2022/03/25 11:07:03;;;;;;;;;;;23.20;21.00;;;;;;1513978;76;756;-64
2022/03/25 11:09:06;;;;;;;;;;;23.00;21.70;;;;;;1535390;75;1187;-65
2022/03/25 11:11:08;;;;;;;;;;;22.90;22.50;;;;;;1534734;75;726;-64
2022/03/25 11:13:09;;;;;;;;;;;23.00;22.70;;;;;;1524058;75;778;-64
2022/03/25 11:15:12;;;;;;;;;;;23.00;23.00;;;;;;1521805;76;771;-66
2022/03/25 11:17:15;;;;;;;;;;;23.00;22.50;;;;;;1525865;77;1894;-64
2022/03/25 11:19:17;;;;;;;;;;;23.00;22.00;;;;;;1534944;75;1210;-64
2022/03/25 11:21:18;;;;;;;;;;;23.00;21.30;;;;;;1537568;75;1136;-64
2022/03/25 11:23:21;;;;;;;;;;;23.00;21.30;;;;;;1539143;77;614;-65
2022/03/25 11:25:23;;;;;;;;;;;22.80;21.00;;;;;;1528628;75;796;-65
2022/03/25 11:27:26;;;;;;;;;;;22.80;21.20;;;;;;1530215;75;824;-63
2022/03/25 11:29:27;;;;;;;;;;;22.90;22.40;;;;;;1524663;75;1181;-63
2022/03/25 11:31:30;;;;;;;;;;;22.80;20.30;;;;;;1526908;75;733;-64
2022/03/25 11:33:32;;;;;;;;;;;22.90;22.10;;;;;;1535515;75;671;-64
2022/03/25 11:35:44;;;;;;;;;;;22.70;22.10;;;;;;1525963;75;2066;-69
2022/03/25 11:37:46;;;;;;;;;;;22.80;22.60;;;;;;1525678;75;1279;-69
2022/03/25 11:39:48;;;;;;;;;;;22.90;23.00;;;;;;1526132;75;649;-69
2022/03/25 11:41:50;;;;;;;;;;;22.90;23.10;;;;;;1531029;75;706;-68
2022/03/25 11:43:56;;;;;;;;;;;23.00;23.30;;;;;;1536731;75;768;-70
2022/03/25 11:46:02;;;;;;;;;;;23.00;23.50;;;;;;1514268;75;1238;-70
2022/03/25 11:48:07;;;;;;;;;;;23.00;23.50;;;;;;1527819;75;1151;-69
2022/03/25 11:50:20;;;;;;;;;;;23.00;23.70;;;;;;1531181;75;753;-69
2022/03/25 11:52:31;;;;;;;;;;;23.10;23.90;;;;;;1497164;76;1070;-71
2022/03/25 11:54:40;;;;;;;;;;;23.00;23.90;;;;;;1529828;76;802;-68
2022/03/25 11:56:44;;;;;;;;;;;23.10;24.20;;;;;;1513613;75;1925;-69
2022/03/25 11:58:56;;;;;;;;;;;23.10;24.30;;;;;;1517956;75;1132;-69
2022/03/25 12:01:04;;;;;;;;;;;23.20;24.40;;;;;;1530216;77;589;-71
2022/03/25 12:03:06;;;;;;;;;;;23.20;24.60;;;;;;1522189;76;746;-70
2022/03/25 12:05:10;;;;;;;;;;;23.20;24.70;;;;;;1528825;75;702;-70
2022/03/25 12:07:12;;;;;;;;;;;23.20;24.70;;;;;;1500077;77;1382;-69
2022/03/25 12:09:18;;;;;;;;;;;23.20;24.90;;;;;;1525901;76;1142;-70
2022/03/25 12:11:20;;;;;;;;;;;23.10;25.00;;;;;;1523260;75;705;-70
2022/03/25 12:13:22;;;;;;;;;;;23.20;25.10;;;;;;1501426;77;1199;-69
2022/03/25 12:15:40;;;;;;;;;;;23.20;25.20;;;;;;1501482;77;731;-71
2022/03/25 12:17:42;;;;;;;;;;;23.20;25.30;;;;;;1490689;77;1923;-69